createdAt,value
2022-12-31T00:01:28.682Z,89.33
2022-12-31T00:03:55.020Z,89.38
2022-12-31T00:06:21.387Z,89.41
2022-12-31T00:08:47.722Z,89.31
2022-12-31T00:11:14.086Z,89.23
2022-12-31T00:13:40.445Z,89.40
2022-12-31T00:16:11.741Z,89.33
2022-12-31T00:18:38.660Z,89.50
2022-12-31T00:21:04.996Z,89.51
2022-12-31T00:23:31.559Z,89.50
2022-12-31T00:25:57.911Z,89.42
2022-12-31T00:28:24.268Z,89.41
2022-12-31T00:30:50.630Z,89.31
2022-12-31T00:33:17.210Z,89.21
2022-12-31T00:35:43.939Z,89.65
2022-12-31T00:38:10.273Z,89.46
2022-12-31T00:40:36.625Z,89.40
2022-12-31T00:43:02.972Z,89.46
2022-12-31T00:45:29.330Z,89.43
2022-12-31T00:47:55.719Z,89.55
2022-12-31T00:50:22.045Z,89.61
2022-12-31T00:52:48.401Z,89.55
2022-12-31T00:55:14.946Z,89.66
2022-12-31T00:57:41.265Z,89.35
2022-12-31T01:00:07.627Z,89.47
2022-12-31T01:02:34.115Z,89.62
2022-12-31T01:05:00.589Z,89.57
2022-12-31T01:07:26.931Z,89.73
2022-12-31T01:09:53.288Z,89.73
2022-12-31T01:12:19.679Z,89.72
2022-12-31T01:14:46.032Z,89.71
2022-12-31T01:17:12.375Z,89.74
2022-12-31T01:19:38.940Z,89.66
2022-12-31T01:22:05.318Z,89.71
2022-12-31T01:24:31.657Z,89.86
2022-12-31T01:26:58.099Z,89.88
2022-12-31T01:29:24.485Z,89.83
2022-12-31T01:31:50.840Z,89.74
2022-12-31T01:34:17.193Z,89.81
2022-12-31T01:36:43.530Z,89.84
2022-12-31T01:39:09.883Z,89.82
2022-12-31T01:41:36.250Z,89.86
2022-12-31T01:44:02.584Z,89.98
2022-12-31T01:46:29.195Z,90.03
2022-12-31T01:48:55.595Z,90.02
2022-12-31T01:51:21.925Z,90.07
2022-12-31T01:53:48.247Z,90.01
2022-12-31T01:56:14.579Z,89.96
2022-12-31T01:58:40.958Z,90.10
2022-12-31T02:01:07.354Z,90.12
2022-12-31T02:03:33.742Z,90.19
2022-12-31T02:06:00.100Z,90.17
2022-12-31T02:08:26.438Z,89.95
2022-12-31T02:10:52.772Z,89.97
2022-12-31T02:13:19.107Z,90.07
2022-12-31T02:15:45.572Z,90.10
2022-12-31T02:18:12.018Z,90.04
2022-12-31T02:20:38.586Z,90.03
2022-12-31T02:23:04.950Z,90.10
2022-12-31T02:25:31.681Z,89.99
2022-12-31T02:27:58.057Z,89.99
2022-12-31T02:30:24.427Z,90.10
2022-12-31T02:32:50.805Z,90.14
2022-12-31T02:35:17.167Z,90.18
2022-12-31T02:37:43.542Z,90.20
2022-12-31T02:40:09.909Z,90.15
2022-12-31T02:42:36.562Z,90.23
2022-12-31T02:45:02.978Z,90.10
2022-12-31T02:47:29.389Z,90.02
2022-12-31T02:49:55.994Z,90.00
2022-12-31T02:52:22.385Z,90.02
2022-12-31T02:54:48.782Z,89.91
2022-12-31T02:57:15.202Z,89.94
2022-12-31T02:59:41.575Z,90.01
2022-12-31T03:02:08.493Z,89.95
2022-12-31T03:04:34.996Z,89.92
2022-12-31T03:07:01.369Z,89.95
2022-12-31T03:09:27.741Z,89.90
2022-12-31T03:11:54.317Z,89.74
2022-12-31T03:14:20.892Z,89.86
2022-12-31T03:16:47.465Z,89.79
2022-12-31T03:19:13.862Z,89.64
2022-12-31T03:21:40.266Z,89.65
2022-12-31T03:24:06.660Z,89.80
2022-12-31T03:26:33.036Z,89.82
2022-12-31T03:28:59.437Z,89.83
2022-12-31T03:31:25.893Z,89.80
2022-12-31T03:33:52.319Z,89.85
2022-12-31T03:36:18.698Z,89.81
2022-12-31T03:38:48.535Z,89.81
2022-12-31T03:41:18.884Z,89.72
2022-12-31T03:43:45.287Z,89.87
2022-12-31T03:46:11.715Z,89.67
2022-12-31T03:48:38.128Z,89.87
2022-12-31T03:51:04.491Z,89.69
2022-12-31T03:53:30.877Z,89.60
2022-12-31T03:55:57.250Z,89.78
2022-12-31T03:58:23.654Z,89.77
2022-12-31T04:00:50.114Z,89.73
2022-12-31T04:03:16.609Z,89.61
2022-12-31T04:05:43.249Z,89.64
2022-12-31T04:08:09.617Z,89.62
2022-12-31T04:10:36.010Z,89.66
2022-12-31T04:13:02.634Z,89.95
2022-12-31T04:15:29.229Z,89.55
2022-12-31T04:17:55.601Z,89.86
2022-12-31T04:20:22.174Z,89.49
2022-12-31T04:22:48.551Z,89.49
2022-12-31T04:25:14.941Z,89.62
2022-12-31T04:27:41.368Z,89.50
2022-12-31T04:30:08.060Z,89.41
2022-12-31T04:32:34.431Z,89.52
2022-12-31T04:35:00.836Z,89.69
2022-12-31T04:37:27.209Z,89.85
2022-12-31T04:39:53.593Z,89.87
2022-12-31T04:42:19.989Z,89.70
2022-12-31T04:44:46.391Z,89.65
2022-12-31T04:47:12.755Z,89.71
2022-12-31T04:49:39.339Z,89.90
2022-12-31T04:52:05.703Z,89.91
2022-12-31T04:54:32.064Z,89.80
2022-12-31T04:56:58.437Z,89.93
2022-12-31T04:59:24.801Z,89.98
2022-12-31T05:01:51.286Z,89.90
2022-12-31T05:04:17.778Z,89.91
2022-12-31T05:06:44.155Z,89.74
2022-12-31T05:09:10.533Z,89.66
2022-12-31T05:11:36.940Z,89.71
2022-12-31T05:14:03.331Z,89.73
2022-12-31T05:16:29.761Z,89.76
2022-12-31T05:18:56.189Z,89.73
2022-12-31T05:21:22.609Z,89.75
2022-12-31T05:23:49.002Z,89.90
2022-12-31T05:26:15.614Z,89.93
2022-12-31T05:28:42.241Z,89.96
2022-12-31T05:31:08.696Z,89.93
2022-12-31T05:33:35.130Z,90.01
2022-12-31T05:36:01.748Z,90.00
2022-12-31T05:38:28.143Z,89.88
2022-12-31T05:40:54.500Z,89.78
2022-12-31T05:43:21.312Z,89.89
2022-12-31T05:45:47.766Z,89.84
2022-12-31T05:48:14.217Z,89.84
2022-12-31T05:50:40.740Z,89.93
2022-12-31T05:53:08.839Z,89.88
2022-12-31T05:55:35.247Z,89.98
2022-12-31T05:58:01.628Z,90.11
2022-12-31T06:00:28.009Z,90.18
2022-12-31T06:02:54.458Z,90.20
2022-12-31T06:05:25.936Z,90.25
2022-12-31T06:07:52.610Z,90.27
2022-12-31T06:10:18.983Z,90.36
2022-12-31T06:12:45.392Z,90.35
2022-12-31T06:15:11.763Z,90.35
2022-12-31T06:17:38.147Z,90.43
2022-12-31T06:20:10.509Z,90.43
2022-12-31T06:22:39.012Z,90.46
2022-12-31T06:25:05.427Z,90.43
2022-12-31T06:27:31.855Z,90.44
2022-12-31T06:29:58.224Z,90.43
2022-12-31T06:32:24.603Z,90.27
2022-12-31T06:34:51.002Z,90.28
2022-12-31T06:37:17.408Z,90.26
2022-12-31T06:39:43.805Z,90.20
2022-12-31T06:42:10.393Z,90.16
2022-12-31T06:44:36.795Z,90.15
2022-12-31T06:47:03.396Z,90.23
2022-12-31T06:49:29.814Z,90.31
2022-12-31T06:51:56.177Z,90.61
2022-12-31T06:54:22.575Z,90.50
2022-12-31T06:56:48.982Z,90.61
2022-12-31T06:59:15.398Z,90.66
2022-12-31T07:01:41.875Z,90.55
2022-12-31T07:04:08.317Z,90.56
2022-12-31T07:06:34.701Z,90.63
2022-12-31T07:09:01.092Z,90.57
2022-12-31T07:11:27.507Z,90.63
2022-12-31T07:13:53.896Z,90.63
2022-12-31T07:16:20.315Z,90.55
2022-12-31T07:18:46.791Z,90.56
2022-12-31T07:21:13.188Z,90.54
2022-12-31T07:23:39.570Z,90.61
2022-12-31T07:26:05.979Z,90.57
2022-12-31T07:28:32.348Z,90.61
2022-12-31T07:30:58.733Z,90.60
2022-12-31T07:33:25.127Z,90.60
2022-12-31T07:35:51.533Z,90.71
2022-12-31T07:38:17.912Z,90.76
2022-12-31T07:40:44.296Z,90.76
2022-12-31T07:43:10.689Z,90.76
2022-12-31T07:45:37.077Z,90.70
2022-12-31T07:48:03.493Z,90.66
2022-12-31T07:50:29.881Z,90.64
2022-12-31T07:52:56.283Z,90.80
2022-12-31T07:55:22.907Z,90.85
2022-12-31T07:57:49.515Z,90.86
2022-12-31T08:00:15.929Z,90.80
2022-12-31T08:02:42.358Z,90.67
2022-12-31T08:05:08.963Z,90.34
2022-12-31T08:07:35.331Z,90.37
2022-12-31T08:10:01.692Z,90.36
2022-12-31T08:12:28.069Z,90.34
2022-12-31T08:14:54.684Z,90.38
2022-12-31T08:17:21.288Z,90.72
2022-12-31T08:19:47.877Z,90.59
2022-12-31T08:22:14.490Z,90.93
2022-12-31T08:24:40.887Z,91.18
2022-12-31T08:27:07.484Z,91.11
2022-12-31T08:29:33.871Z,91.18
2022-12-31T08:32:00.488Z,90.85
2022-12-31T08:34:26.879Z,90.34
2022-12-31T08:36:53.510Z,90.39
2022-12-31T08:39:19.908Z,90.34
2022-12-31T08:41:46.521Z,90.39
2022-12-31T08:44:12.941Z,90.48
2022-12-31T08:46:39.558Z,90.64
2022-12-31T08:49:06.145Z,90.68
2022-12-31T08:51:32.538Z,90.50
2022-12-31T08:53:59.143Z,90.51
2022-12-31T08:56:25.728Z,90.43
2022-12-31T08:58:52.134Z,90.60
2022-12-31T09:01:18.593Z,90.69
2022-12-31T09:03:45.114Z,90.68
2022-12-31T09:06:11.544Z,90.63
2022-12-31T09:08:38.228Z,90.58
2022-12-31T09:11:04.597Z,90.55
2022-12-31T09:13:30.969Z,90.62
2022-12-31T09:15:57.353Z,90.59
2022-12-31T09:18:27.109Z,90.69
2022-12-31T09:20:57.687Z,90.86
2022-12-31T09:23:26.842Z,91.18
2022-12-31T09:25:54.179Z,91.37
2022-12-31T09:28:20.569Z,91.11
2022-12-31T09:30:47.173Z,90.94
2022-12-31T09:33:13.541Z,91.04
2022-12-31T09:35:39.939Z,91.04
2022-12-31T09:38:11.297Z,90.97
2022-12-31T09:40:38.139Z,90.80
2022-12-31T09:43:04.534Z,90.79
2022-12-31T09:45:31.178Z,91.01
2022-12-31T09:47:57.586Z,91.26
2022-12-31T09:50:23.965Z,91.47
2022-12-31T09:52:50.359Z,91.39
2022-12-31T09:55:16.751Z,91.41
2022-12-31T09:57:43.160Z,91.31
2022-12-31T10:00:09.551Z,91.44
2022-12-31T10:02:36.034Z,91.77
2022-12-31T10:05:02.552Z,91.67
2022-12-31T10:07:29.139Z,91.69
2022-12-31T10:09:55.749Z,91.51
2022-12-31T10:12:22.124Z,91.54
2022-12-31T10:14:48.488Z,91.63
2022-12-31T10:17:14.853Z,91.62
2022-12-31T10:19:41.252Z,91.79
2022-12-31T10:22:07.844Z,91.93
2022-12-31T10:24:34.238Z,91.92
2022-12-31T10:27:00.838Z,92.09
2022-12-31T10:29:27.428Z,92.23
2022-12-31T10:31:53.820Z,92.43
2022-12-31T10:34:20.327Z,92.23
2022-12-31T10:36:46.745Z,92.38
2022-12-31T10:39:17.536Z,92.48
2022-12-31T10:41:47.151Z,92.59
2022-12-31T10:44:13.537Z,92.58
2022-12-31T10:46:40.166Z,92.53
2022-12-31T10:49:06.559Z,92.54
2022-12-31T10:51:32.948Z,92.82
2022-12-31T10:53:59.347Z,92.79
2022-12-31T10:56:25.733Z,92.74
2022-12-31T10:58:52.128Z,92.99
2022-12-31T11:01:18.542Z,93.11
2022-12-31T11:03:45.328Z,93.10
2022-12-31T11:06:11.735Z,93.09
2022-12-31T11:08:38.096Z,92.97
2022-12-31T11:11:04.497Z,92.64
2022-12-31T11:13:31.095Z,92.32
2022-12-31T11:15:57.722Z,91.90
2022-12-31T11:18:24.131Z,91.60
2022-12-31T11:20:50.495Z,91.62
2022-12-31T11:23:16.872Z,91.55
2022-12-31T11:25:43.245Z,91.42
2022-12-31T11:28:09.834Z,91.80
2022-12-31T11:30:36.432Z,92.26
2022-12-31T11:33:02.827Z,92.50
2022-12-31T11:35:29.451Z,92.53
2022-12-31T11:37:55.848Z,92.34
2022-12-31T11:40:22.235Z,92.84
2022-12-31T11:42:48.631Z,92.56
2022-12-31T11:45:15.036Z,92.73
2022-12-31T11:48:20.095Z,92.51
2022-12-31T11:50:28.262Z,92.60
2022-12-31T11:52:54.867Z,92.66
2022-12-31T11:55:21.273Z,92.61
2022-12-31T11:57:47.679Z,92.68
2022-12-31T12:00:14.128Z,92.64
2022-12-31T12:02:40.607Z,92.07
2022-12-31T12:05:10.996Z,91.94
2022-12-31T12:07:37.894Z,91.39
2022-12-31T12:10:04.262Z,91.46
2022-12-31T12:12:30.829Z,91.44
2022-12-31T12:14:57.201Z,91.32
2022-12-31T12:17:23.607Z,91.80
2022-12-31T12:19:49.995Z,92.15
2022-12-31T12:22:16.386Z,92.11
2022-12-31T12:24:42.795Z,92.15
2022-12-31T12:27:09.211Z,92.34
2022-12-31T12:29:35.595Z,92.44
2022-12-31T12:32:01.979Z,92.65
2022-12-31T12:34:28.670Z,92.60
2022-12-31T12:36:55.259Z,92.56
2022-12-31T12:39:21.620Z,92.43
2022-12-31T12:41:47.986Z,92.73
2022-12-31T12:44:14.388Z,92.82
2022-12-31T12:46:46.082Z,92.94
2022-12-31T12:49:14.293Z,92.94
2022-12-31T12:51:40.659Z,92.80
2022-12-31T12:54:07.050Z,92.34
2022-12-31T12:56:33.652Z,92.24
2022-12-31T12:59:00.024Z,92.23
2022-12-31T13:01:26.531Z,91.89
2022-12-31T13:04:23.786Z,92.51
2022-12-31T13:06:39.750Z,92.53
2022-12-31T13:09:06.130Z,92.45
2022-12-31T13:11:32.500Z,92.48
2022-12-31T13:13:58.860Z,92.57
2022-12-31T13:16:25.298Z,92.69
2022-12-31T13:18:51.750Z,92.29
2022-12-31T13:21:18.370Z,92.05
2022-12-31T13:23:44.796Z,92.26
2022-12-31T13:26:11.399Z,92.63
2022-12-31T13:28:37.796Z,92.94
2022-12-31T13:31:07.026Z,92.99
2022-12-31T13:33:33.689Z,92.93
2022-12-31T13:36:00.260Z,93.12
2022-12-31T13:38:26.655Z,93.16
2022-12-31T13:40:53.245Z,93.40
2022-12-31T13:43:19.600Z,93.51
2022-12-31T13:45:46.054Z,93.39
2022-12-31T13:48:12.452Z,93.55
2022-12-31T13:50:38.847Z,93.40
2022-12-31T13:53:05.265Z,93.54
2022-12-31T13:55:31.664Z,93.66
2022-12-31T13:57:58.047Z,93.80
2022-12-31T14:00:24.429Z,93.85
2022-12-31T14:02:50.854Z,93.77
2022-12-31T14:05:17.529Z,93.89
2022-12-31T14:07:45.774Z,93.91
2022-12-31T14:10:12.616Z,94.10
2022-12-31T14:12:39.006Z,94.15
2022-12-31T14:15:05.592Z,94.18
2022-12-31T14:17:32.190Z,94.36
2022-12-31T14:19:58.599Z,94.42
2022-12-31T14:22:24.986Z,94.49
2022-12-31T14:24:51.386Z,94.49
2022-12-31T14:27:17.776Z,94.51
2022-12-31T14:29:44.164Z,94.34
2022-12-31T14:32:10.616Z,94.31
2022-12-31T14:34:37.255Z,94.15
2022-12-31T14:37:03.616Z,93.89
2022-12-31T14:39:30.037Z,93.72
2022-12-31T14:41:56.616Z,93.48
2022-12-31T14:44:23.232Z,93.33
2022-12-31T14:46:49.641Z,93.13
2022-12-31T14:49:16.070Z,93.05
2022-12-31T14:51:42.449Z,92.98
2022-12-31T14:54:08.827Z,92.75
2022-12-31T14:56:35.415Z,92.49
2022-12-31T14:59:02.016Z,92.38
2022-12-31T15:01:28.464Z,92.31
2022-12-31T15:03:55.124Z,91.66
2022-12-31T15:06:21.524Z,91.62
2022-12-31T15:08:47.916Z,91.51
2022-12-31T15:11:14.317Z,91.18
2022-12-31T15:13:40.702Z,90.86
2022-12-31T15:16:07.300Z,90.87
2022-12-31T15:18:33.687Z,90.79
2022-12-31T15:21:00.255Z,90.48
2022-12-31T15:23:26.839Z,90.52
2022-12-31T15:25:53.217Z,90.47
2022-12-31T15:28:19.820Z,90.45
2022-12-31T15:30:46.234Z,90.43
2022-12-31T15:33:12.653Z,90.29
2022-12-31T15:35:39.027Z,90.32
2022-12-31T15:38:05.428Z,90.31
2022-12-31T15:40:31.828Z,90.33
2022-12-31T15:42:58.214Z,90.24
2022-12-31T15:45:24.594Z,90.20
2022-12-31T15:47:50.987Z,90.24
2022-12-31T15:50:17.576Z,90.18
2022-12-31T15:52:43.941Z,90.21
2022-12-31T15:55:10.337Z,90.19
2022-12-31T15:57:36.932Z,90.17
2022-12-31T16:00:03.344Z,90.18
2022-12-31T16:02:29.890Z,90.18
2022-12-31T16:04:56.607Z,90.22
2022-12-31T16:07:23.002Z,90.17
2022-12-31T16:09:49.604Z,90.14
2022-12-31T16:12:16.009Z,90.16
2022-12-31T16:14:42.407Z,90.08
2022-12-31T16:17:09.040Z,90.14
2022-12-31T16:19:35.616Z,90.12
2022-12-31T16:22:01.984Z,90.12
2022-12-31T16:24:28.366Z,90.08
2022-12-31T16:26:54.726Z,90.00
2022-12-31T16:29:21.117Z,90.04
2022-12-31T16:31:47.479Z,90.07
2022-12-31T16:34:14.093Z,90.05
2022-12-31T16:36:40.506Z,89.97
2022-12-31T16:39:06.895Z,89.95
2022-12-31T16:41:33.285Z,89.95
2022-12-31T16:43:59.665Z,90.07
2022-12-31T16:46:26.145Z,89.96
2022-12-31T16:48:52.605Z,89.92
2022-12-31T16:51:18.981Z,89.89
2022-12-31T16:53:45.376Z,90.02
2022-12-31T16:56:11.779Z,89.95
2022-12-31T16:58:38.379Z,90.02
2022-12-31T17:01:04.821Z,90.04
2022-12-31T17:03:31.283Z,90.01
2022-12-31T17:05:57.943Z,90.10
2022-12-31T17:08:24.338Z,89.99
2022-12-31T17:10:50.741Z,89.99
2022-12-31T17:13:27.401Z,90.00
2022-12-31T17:15:54.986Z,89.98
2022-12-31T17:18:21.414Z,90.10
2022-12-31T17:20:47.811Z,90.17
2022-12-31T17:23:14.172Z,90.17
2022-12-31T17:25:40.547Z,90.11
2022-12-31T17:28:06.938Z,90.24
2022-12-31T17:30:33.327Z,90.07
2022-12-31T17:32:59.692Z,90.22
2022-12-31T17:35:26.080Z,90.13
2022-12-31T17:37:52.455Z,90.11
2022-12-31T17:40:49.937Z,90.15
2022-12-31T17:43:05.197Z,90.28
2022-12-31T17:45:31.593Z,90.08
2022-12-31T17:47:58.002Z,90.14
2022-12-31T17:50:24.408Z,90.10
2022-12-31T17:52:50.774Z,90.11
2022-12-31T17:55:17.171Z,90.21
2022-12-31T17:57:43.594Z,89.93
2022-12-31T18:00:09.965Z,89.84
2022-12-31T18:02:36.972Z,90.07
2022-12-31T18:05:03.406Z,90.18
2022-12-31T18:07:29.767Z,90.19
2022-12-31T18:09:56.132Z,90.29
2022-12-31T18:12:22.519Z,90.08
2022-12-31T18:14:48.928Z,90.18
2022-12-31T18:17:15.366Z,90.15
2022-12-31T18:20:11.134Z,90.20
2022-12-31T18:22:28.084Z,90.29
2022-12-31T18:24:54.461Z,90.10
2022-12-31T18:27:20.849Z,90.25
2022-12-31T18:29:47.216Z,90.25
2022-12-31T18:32:13.667Z,90.24
2022-12-31T18:34:40.061Z,90.15
2022-12-31T18:37:06.442Z,90.37
2022-12-31T18:39:33.978Z,90.33
2022-12-31T18:42:00.389Z,90.24
2022-12-31T18:44:26.964Z,90.32
2022-12-31T18:46:53.586Z,90.11
2022-12-31T18:49:19.954Z,90.17
2022-12-31T18:51:46.559Z,90.26
2022-12-31T18:54:12.944Z,90.22
2022-12-31T18:56:44.819Z,90.36
2022-12-31T18:59:13.541Z,90.28
2022-12-31T19:01:40.279Z,90.18
2022-12-31T19:04:06.754Z,90.24
2022-12-31T19:06:33.339Z,90.37
2022-12-31T19:09:01.146Z,90.15
2022-12-31T19:11:27.741Z,90.20
2022-12-31T19:13:54.120Z,90.21
2022-12-31T19:16:20.509Z,90.25
2022-12-31T19:18:46.906Z,90.22
2022-12-31T19:21:13.264Z,90.19
2022-12-31T19:23:39.852Z,90.39
2022-12-31T19:26:06.247Z,90.50
2022-12-31T19:28:32.649Z,90.43
2022-12-31T19:30:59.085Z,90.21
2022-12-31T19:33:25.478Z,90.33
2022-12-31T19:35:51.869Z,90.21
2022-12-31T19:38:18.263Z,90.36
2022-12-31T19:40:44.652Z,90.18
2022-12-31T19:43:11.039Z,90.29
2022-12-31T19:45:37.443Z,90.27
2022-12-31T19:48:03.856Z,90.26
2022-12-31T19:50:30.250Z,90.15
2022-12-31T19:52:56.625Z,90.23
2022-12-31T19:55:22.987Z,90.20
2022-12-31T19:57:49.372Z,90.15
2022-12-31T20:00:15.747Z,90.10
2022-12-31T20:02:42.566Z,90.23
2022-12-31T20:05:09.102Z,90.10
2022-12-31T20:07:35.515Z,90.02
2022-12-31T20:10:01.948Z,90.13
2022-12-31T20:12:28.521Z,90.10
2022-12-31T20:14:54.914Z,90.26
2022-12-31T20:17:21.304Z,90.21
2022-12-31T20:19:47.887Z,90.20
2022-12-31T20:22:14.466Z,90.09
2022-12-31T20:24:40.851Z,90.05
2022-12-31T20:27:07.252Z,90.02
2022-12-31T20:29:33.636Z,89.97
2022-12-31T20:32:00.041Z,89.92
2022-12-31T20:34:26.465Z,89.88
2022-12-31T20:36:52.881Z,90.00
2022-12-31T20:39:19.281Z,90.15
2022-12-31T20:41:45.647Z,90.25
2022-12-31T20:44:12.012Z,90.09
2022-12-31T20:46:38.441Z,90.21
2022-12-31T20:49:04.885Z,90.32
2022-12-31T20:51:31.294Z,90.28
2022-12-31T20:53:57.719Z,90.21
2022-12-31T20:56:24.379Z,90.18
2022-12-31T20:58:50.798Z,90.46
2022-12-31T21:01:17.324Z,90.38
2022-12-31T21:06:30.422Z,90.43
2022-12-31T21:08:56.861Z,90.58
2022-12-31T21:11:23.494Z,90.59
2022-12-31T21:13:49.898Z,90.53
2022-12-31T21:16:16.344Z,90.66
2022-12-31T21:18:42.763Z,90.72
2022-12-31T21:21:09.336Z,90.53
2022-12-31T21:23:35.988Z,90.59
2022-12-31T21:26:02.391Z,90.75
2022-12-31T21:28:28.767Z,90.82
2022-12-31T21:30:55.207Z,90.79
2022-12-31T21:33:21.620Z,90.61
2022-12-31T21:35:53.571Z,90.75
2022-12-31T21:38:20.632Z,90.75
2022-12-31T21:40:47.036Z,90.91
2022-12-31T21:43:13.415Z,90.94
2022-12-31T21:45:40.014Z,90.96
2022-12-31T21:48:06.382Z,91.06
2022-12-31T21:50:32.732Z,90.93
2022-12-31T21:52:59.103Z,90.93
2022-12-31T21:55:25.474Z,91.07
2022-12-31T21:58:24.832Z,90.91
2022-12-31T22:00:43.048Z,91.01
2022-12-31T22:03:09.845Z,91.09
2022-12-31T22:05:36.317Z,91.06
2022-12-31T22:08:02.682Z,90.88
2022-12-31T22:10:29.075Z,90.22
2022-12-31T22:12:55.467Z,90.31
2022-12-31T22:15:21.874Z,89.70
2022-12-31T22:17:48.482Z,89.58
2022-12-31T22:20:26.881Z,89.82
2022-12-31T22:22:54.401Z,90.14
2022-12-31T22:25:20.787Z,90.22
2022-12-31T22:28:11.524Z,90.55
2022-12-31T22:30:33.740Z,90.63
2022-12-31T22:33:00.141Z,90.76
2022-12-31T22:35:26.508Z,90.44
2022-12-31T22:37:59.009Z,90.85
2022-12-31T22:40:28.046Z,90.69
2022-12-31T22:42:54.426Z,90.92
2022-12-31T22:45:20.865Z,90.72
2022-12-31T22:47:47.275Z,90.98
2022-12-31T22:50:13.854Z,90.60
2022-12-31T22:52:40.239Z,90.83
2022-12-31T22:55:06.624Z,90.75
2022-12-31T22:57:33.030Z,90.28
2022-12-31T22:59:59.416Z,90.15
2022-12-31T23:02:25.869Z,90.51
2022-12-31T23:04:52.549Z,90.04
2022-12-31T23:07:38.914Z,89.74
2022-12-31T23:10:05.322Z,90.17
2022-12-31T23:12:32.773Z,90.41
2022-12-31T23:14:59.182Z,90.39
2022-12-31T23:17:31.265Z,90.71
2022-12-31T23:19:58.758Z,90.80
2022-12-31T23:22:25.377Z,90.63
2022-12-31T23:24:51.756Z,90.85
2022-12-31T23:27:18.758Z,90.57
2022-12-31T23:29:47.565Z,90.65
2022-12-31T23:32:14.427Z,90.03
2022-12-31T23:34:40.798Z,90.40
2022-12-31T23:37:07.407Z,90.14
2022-12-31T23:39:34.054Z,90.17
2022-12-31T23:42:00.470Z,89.88
2022-12-31T23:44:26.853Z,90.00
2022-12-31T23:46:53.322Z,89.77
2022-12-31T23:49:19.928Z,89.72
2022-12-31T23:51:46.308Z,89.67
2022-12-31T23:54:12.675Z,89.48
2022-12-31T23:56:39.078Z,89.53
2022-12-31T23:59:05.665Z,89.48
